sensor_id;sensor_type;location;lat;lon;timestamp;pressure;altitude;pressure_sealevel;temperature;humidity
85039;BME280;75366;54.588;18.456;2024-03-08T00:05:06;101880.86;;;-1.36;80.54
85039;BME280;75366;54.588;18.456;2024-03-08T00:10:28;101883.83;;;-1.40;80.62
85039;BME280;75366;54.588;18.456;2024-03-08T00:15:32;101878.98;;;-1.49;80.49
85039;BME280;75366;54.588;18.456;2024-03-08T00:20:33;101876.64;;;-1.55;80.88
85039;BME280;75366;54.588;18.456;2024-03-08T00:25:35;101874.31;;;-1.56;80.80
85039;BME280;75366;54.588;18.456;2024-03-08T00:30:37;101870.59;;;-1.58;80.56
85039;BME280;75366;54.588;18.456;2024-03-08T00:35:38;101864.27;;;-1.62;80.84
85039;BME280;75366;54.588;18.456;2024-03-08T00:40:40;101861.06;;;-1.65;80.52
85039;BME280;75366;54.588;18.456;2024-03-08T00:45:42;101861.34;;;-1.64;80.92
85039;BME280;75366;54.588;18.456;2024-03-08T00:50:44;101857.95;;;-1.63;81.13
85039;BME280;75366;54.588;18.456;2024-03-08T00:55:48;101852.48;;;-1.65;81.19
85039;BME280;75366;54.588;18.456;2024-03-08T01:00:50;101846.23;;;-1.68;81.01
85039;BME280;75366;54.588;18.456;2024-03-08T01:05:52;101846.29;;;-1.73;81.05
85039;BME280;75366;54.588;18.456;2024-03-08T01:10:54;101843.00;;;-1.75;80.90
85039;BME280;75366;54.588;18.456;2024-03-08T01:15:55;101834.64;;;-1.74;80.70
85039;BME280;75366;54.588;18.456;2024-03-08T01:20:57;101831.62;;;-1.75;80.77
85039;BME280;75366;54.588;18.456;2024-03-08T01:25:58;101825.20;;;-1.76;80.93
85039;BME280;75366;54.588;18.456;2024-03-08T01:31:00;101821.19;;;-1.74;80.94
85039;BME280;75366;54.588;18.456;2024-03-08T01:36:02;101817.08;;;-1.73;80.67
85039;BME280;75366;54.588;18.456;2024-03-08T01:41:05;101818.16;;;-1.80;80.84
85039;BME280;75366;54.588;18.456;2024-03-08T01:46:07;101813.38;;;-1.83;81.13
85039;BME280;75366;54.588;18.456;2024-03-08T01:51:11;101805.79;;;-1.82;81.50
85039;BME280;75366;54.588;18.456;2024-03-08T01:56:14;101801.45;;;-1.80;81.38
85039;BME280;75366;54.588;18.456;2024-03-08T02:01:17;101799.89;;;-1.83;81.49
85039;BME280;75366;54.588;18.456;2024-03-08T02:06:20;101795.93;;;-1.82;82.02
85039;BME280;75366;54.588;18.456;2024-03-08T02:11:22;101792.22;;;-1.79;81.82
85039;BME280;75366;54.588;18.456;2024-03-08T02:16:24;101787.25;;;-1.76;82.03
85039;BME280;75366;54.588;18.456;2024-03-08T02:21:26;101782.58;;;-1.75;82.14
85039;BME280;75366;54.588;18.456;2024-03-08T02:26:28;101773.92;;;-1.72;81.63
85039;BME280;75366;54.588;18.456;2024-03-08T02:31:30;101768.74;;;-1.70;81.97
85039;BME280;75366;54.588;18.456;2024-03-08T02:36:31;101765.98;;;-1.73;81.81
85039;BME280;75366;54.588;18.456;2024-03-08T02:41:36;101765.67;;;-1.78;81.82
85039;BME280;75366;54.588;18.456;2024-03-08T02:46:38;101764.73;;;-1.83;82.04
85039;BME280;75366;54.588;18.456;2024-03-08T02:51:39;101760.45;;;-1.84;81.89
85039;BME280;75366;54.588;18.456;2024-03-08T02:56:41;101751.00;;;-1.86;81.70
85039;BME280;75366;54.588;18.456;2024-03-08T03:01:43;101751.70;;;-1.88;82.03
85039;BME280;75366;54.588;18.456;2024-03-08T03:06:45;101746.01;;;-1.94;81.96
85039;BME280;75366;54.588;18.456;2024-03-08T03:11:47;101739.98;;;-1.97;81.82
85039;BME280;75366;54.588;18.456;2024-03-08T03:16:48;101740.43;;;-2.02;81.64
85039;BME280;75366;54.588;18.456;2024-03-08T03:21:51;101744.38;;;-2.12;81.48
85039;BME280;75366;54.588;18.456;2024-03-08T03:26:53;101742.67;;;-2.18;81.53
85039;BME280;75366;54.588;18.456;2024-03-08T03:31:56;101746.49;;;-2.22;81.53
85039;BME280;75366;54.588;18.456;2024-03-08T03:36:58;101742.80;;;-2.26;81.64
85039;BME280;75366;54.588;18.456;2024-03-08T03:42:00;101742.00;;;-2.29;81.43
85039;BME280;75366;54.588;18.456;2024-03-08T03:47:03;101736.77;;;-2.32;81.62
85039;BME280;75366;54.588;18.456;2024-03-08T03:52:05;101739.69;;;-2.31;81.78
85039;BME280;75366;54.588;18.456;2024-03-08T03:57:07;101740.02;;;-2.31;81.52
85039;BME280;75366;54.588;18.456;2024-03-08T04:02:09;101735.45;;;-2.30;81.68
85039;BME280;75366;54.588;18.456;2024-03-08T04:07:11;101735.56;;;-2.30;81.97
85039;BME280;75366;54.588;18.456;2024-03-08T04:12:13;101733.16;;;-2.28;82.01
85039;BME280;75366;54.588;18.456;2024-03-08T04:17:16;101732.71;;;-2.23;82.11
85039;BME280;75366;54.588;18.456;2024-03-08T04:22:19;101726.44;;;-2.19;82.50
85039;BME280;75366;54.588;18.456;2024-03-08T04:27:21;101723.19;;;-2.18;82.53
85039;BME280;75366;54.588;18.456;2024-03-08T04:32:23;101722.02;;;-2.18;82.15
85039;BME280;75366;54.588;18.456;2024-03-08T04:37:24;101718.04;;;-2.23;81.97
85039;BME280;75366;54.588;18.456;2024-03-08T04:42:30;101715.34;;;-2.31;82.07
85039;BME280;75366;54.588;18.456;2024-03-08T04:47:34;101712.48;;;-2.36;81.76
85039;BME280;75366;54.588;18.456;2024-03-08T04:52:38;101716.92;;;-2.37;82.10
85039;BME280;75366;54.588;18.456;2024-03-08T04:57:40;101716.85;;;-2.34;82.15
85039;BME280;75366;54.588;18.456;2024-03-08T05:02:43;101712.77;;;-2.40;82.21
85039;BME280;75366;54.588;18.456;2024-03-08T05:07:45;101712.40;;;-2.46;82.31
85039;BME280;75366;54.588;18.456;2024-03-08T05:12:47;101714.44;;;-2.49;82.00
85039;BME280;75366;54.588;18.456;2024-03-08T05:17:48;101713.38;;;-2.47;82.22
85039;BME280;75366;54.588;18.456;2024-03-08T05:22:51;101714.02;;;-2.48;82.41
85039;BME280;75366;54.588;18.456;2024-03-08T05:27:53;101711.19;;;-2.48;82.42
85039;BME280;75366;54.588;18.456;2024-03-08T05:32:55;101706.70;;;-2.42;82.63
85039;BME280;75366;54.588;18.456;2024-03-08T05:37:58;101709.36;;;-2.34;82.91
85039;BME280;75366;54.588;18.456;2024-03-08T05:43:00;101711.31;;;-2.24;83.12
85039;BME280;75366;54.588;18.456;2024-03-08T05:48:01;101716.33;;;-2.17;82.88
85039;BME280;75366;54.588;18.456;2024-03-08T05:53:03;101713.36;;;-2.13;82.85
85039;BME280;75366;54.588;18.456;2024-03-08T05:58:04;101709.93;;;-2.06;83.20
85039;BME280;75366;54.588;18.456;2024-03-08T06:03:09;101706.16;;;-1.96;83.03
85039;BME280;75366;54.588;18.456;2024-03-08T06:08:10;101703.73;;;-1.90;83.19
85039;BME280;75366;54.588;18.456;2024-03-08T06:13:12;101707.05;;;-1.86;83.28
85039;BME280;75366;54.588;18.456;2024-03-08T06:18:14;101703.31;;;-1.79;83.28
85039;BME280;75366;54.588;18.456;2024-03-08T06:23:16;101705.83;;;-1.71;83.61
85039;BME280;75366;54.588;18.456;2024-03-08T06:28:19;101710.38;;;-1.64;83.42
85039;BME280;75366;54.588;18.456;2024-03-08T06:33:20;101711.02;;;-1.57;83.77
85039;BME280;75366;54.588;18.456;2024-03-08T06:38:23;101716.02;;;-1.47;83.76
85039;BME280;75366;54.588;18.456;2024-03-08T06:43:25;101714.08;;;-1.35;83.87
85039;BME280;75366;54.588;18.456;2024-03-08T06:48:34;101718.61;;;-1.23;83.42
85039;BME280;75366;54.588;18.456;2024-03-08T06:53:36;101717.71;;;-1.13;83.54
85039;BME280;75366;54.588;18.456;2024-03-08T06:58:58;101714.36;;;-1.04;83.45
85039;BME280;75366;54.588;18.456;2024-03-08T07:04:00;101716.34;;;-0.97;83.90
85039;BME280;75366;54.588;18.456;2024-03-08T07:09:06;101714.88;;;-0.85;83.71
85039;BME280;75366;54.588;18.456;2024-03-08T07:14:08;101709.36;;;-0.74;83.99
85039;BME280;75366;54.588;18.456;2024-03-08T07:19:30;101717.90;;;-0.60;83.51
85039;BME280;75366;54.588;18.456;2024-03-08T07:24:52;101715.77;;;-0.48;83.44
85039;BME280;75366;54.588;18.456;2024-03-08T07:29:56;101710.25;;;-0.37;83.40
85039;BME280;75366;54.588;18.456;2024-03-08T07:35:02;101707.12;;;-0.29;83.25
85039;BME280;75366;54.588;18.456;2024-03-08T07:40:24;101703.14;;;-0.26;83.25
85039;BME280;75366;54.588;18.456;2024-03-08T07:45:25;101702.92;;;-0.26;82.89
85039;BME280;75366;54.588;18.456;2024-03-08T07:50:27;101699.80;;;-0.20;83.12
85039;BME280;75366;54.588;18.456;2024-03-08T07:55:30;101697.52;;;-0.13;83.10
85039;BME280;75366;54.588;18.456;2024-03-08T08:00:33;101695.17;;;-0.08;82.50
85039;BME280;75366;54.588;18.456;2024-03-08T08:05:34;101693.20;;;-0.14;82.20
85039;BME280;75366;54.588;18.456;2024-03-08T08:10:37;101686.35;;;-0.15;81.72
85039;BME280;75366;54.588;18.456;2024-03-08T08:15:39;101685.54;;;-0.18;81.71
85039;BME280;75366;54.588;18.456;2024-03-08T08:20:40;101682.73;;;-0.12;81.82
85039;BME280;75366;54.588;18.456;2024-03-08T08:25:42;101688.91;;;-0.01;81.92
85039;BME280;75366;54.588;18.456;2024-03-08T08:30:44;101684.06;;;0.06;81.51
85039;BME280;75366;54.588;18.456;2024-03-08T08:35:46;101686.16;;;0.11;81.25
85039;BME280;75366;54.588;18.456;2024-03-08T08:40:49;101682.90;;;0.12;81.46
85039;BME280;75366;54.588;18.456;2024-03-08T08:45:51;101687.14;;;0.19;81.13
85039;BME280;75366;54.588;18.456;2024-03-08T08:50:56;101687.57;;;0.19;80.66
85039;BME280;75366;54.588;18.456;2024-03-08T08:55:57;101681.09;;;0.20;80.70
85039;BME280;75366;54.588;18.456;2024-03-08T09:00:59;101680.65;;;0.29;80.09
85039;BME280;75366;54.588;18.456;2024-03-08T09:06:01;101676.04;;;0.38;79.87
85039;BME280;75366;54.588;18.456;2024-03-08T09:11:04;101674.00;;;0.44;79.52
85039;BME280;75366;54.588;18.456;2024-03-08T09:16:06;101672.78;;;0.47;79.13
85039;BME280;75366;54.588;18.456;2024-03-08T09:21:08;101667.26;;;0.44;78.21
85039;BME280;75366;54.588;18.456;2024-03-08T09:26:11;101660.78;;;0.42;78.04
85039;BME280;75366;54.588;18.456;2024-03-08T09:31:24;101661.05;;;0.51;77.80
85039;BME280;75366;54.588;18.456;2024-03-08T09:36:25;101661.70;;;0.58;77.63
85039;BME280;75366;54.588;18.456;2024-03-08T09:41:28;101659.86;;;0.68;77.44
85039;BME280;75366;54.588;18.456;2024-03-08T09:46:32;101654.81;;;0.82;77.16
85039;BME280;75366;54.588;18.456;2024-03-08T09:51:34;101652.05;;;1.01;77.40
85039;BME280;75366;54.588;18.456;2024-03-08T09:56:42;101650.42;;;1.18;76.23
85039;BME280;75366;54.588;18.456;2024-03-08T10:01:45;101646.65;;;1.26;75.27
85039;BME280;75366;54.588;18.456;2024-03-08T10:06:47;101642.40;;;1.37;75.49
85039;BME280;75366;54.588;18.456;2024-03-08T10:11:49;101639.73;;;1.50;74.71
85039;BME280;75366;54.588;18.456;2024-03-08T10:16:52;101632.52;;;1.62;73.84
85039;BME280;75366;54.588;18.456;2024-03-08T10:21:53;101637.98;;;1.86;73.47
85039;BME280;75366;54.588;18.456;2024-03-08T10:26:59;101631.09;;;1.99;72.77
85039;BME280;75366;54.588;18.456;2024-03-08T10:32:07;101629.23;;;2.00;72.02
85039;BME280;75366;54.588;18.456;2024-03-08T10:37:15;101628.92;;;2.16;72.30
85039;BME280;75366;54.588;18.456;2024-03-08T10:42:22;101626.46;;;2.33;71.27
85039;BME280;75366;54.588;18.456;2024-03-08T10:47:30;101624.76;;;2.34;70.92
85039;BME280;75366;54.588;18.456;2024-03-08T10:52:32;101622.80;;;2.53;70.78
85039;BME280;75366;54.588;18.456;2024-03-08T10:57:39;101616.73;;;2.57;69.12
85039;BME280;75366;54.588;18.456;2024-03-08T11:02:44;101616.23;;;2.62;69.21
85039;BME280;75366;54.588;18.456;2024-03-08T11:07:46;101608.91;;;2.82;69.84
85039;BME280;75366;54.588;18.456;2024-03-08T11:13:40;101610.98;;;3.10;68.42
85039;BME280;75366;54.588;18.456;2024-03-08T11:19:06;101602.54;;;3.21;69.91
85039;BME280;75366;54.588;18.456;2024-03-08T11:24:13;101610.86;;;3.49;69.77
85039;BME280;75366;54.588;18.456;2024-03-08T11:34:29;101604.27;;;3.65;69.47
85039;BME280;75366;54.588;18.456;2024-03-08T11:39:32;101595.56;;;3.68;69.41
85039;BME280;75366;54.588;18.456;2024-03-08T11:44:33;101596.69;;;3.65;68.70
85039;BME280;75366;54.588;18.456;2024-03-08T11:49:35;101597.70;;;3.69;69.52
85039;BME280;75366;54.588;18.456;2024-03-08T11:54:37;101592.20;;;3.69;69.04
85039;BME280;75366;54.588;18.456;2024-03-08T11:59:39;101589.20;;;3.66;69.03
85039;BME280;75366;54.588;18.456;2024-03-08T12:04:41;101571.91;;;3.52;68.71
85039;BME280;75366;54.588;18.456;2024-03-08T12:09:43;101581.73;;;3.63;69.52
85039;BME280;75366;54.588;18.456;2024-03-08T12:14:48;101573.23;;;3.71;69.59
85039;BME280;75366;54.588;18.456;2024-03-08T12:19:50;101571.58;;;3.78;69.76
85039;BME280;75366;54.588;18.456;2024-03-08T12:25:12;101567.67;;;3.80;69.32
85039;BME280;75366;54.588;18.456;2024-03-08T12:30:22;101561.98;;;3.73;69.35
85039;BME280;75366;54.588;18.456;2024-03-08T12:35:26;101558.31;;;3.70;69.76
85039;BME280;75366;54.588;18.456;2024-03-08T12:40:30;101559.27;;;3.73;69.63
85039;BME280;75366;54.588;18.456;2024-03-08T12:45:34;101555.44;;;3.70;69.67
85039;BME280;75366;54.588;18.456;2024-03-08T12:50:36;101554.29;;;3.62;69.77
85039;BME280;75366;54.588;18.456;2024-03-08T12:55:37;101554.46;;;3.54;69.77
85039;BME280;75366;54.588;18.456;2024-03-08T13:00:39;101551.36;;;3.37;69.39
85039;BME280;75366;54.588;18.456;2024-03-08T13:05:44;101550.58;;;3.19;69.90
85039;BME280;75366;54.588;18.456;2024-03-08T13:11:10;101551.45;;;3.11;70.14
85039;BME280;75366;54.588;18.456;2024-03-08T13:16:15;101554.70;;;3.03;70.44
85039;BME280;75366;54.588;18.456;2024-03-08T13:21:18;101549.62;;;2.92;70.68
85039;BME280;75366;54.588;18.456;2024-03-08T13:26:40;101545.38;;;2.82;71.14
85039;BME280;75366;54.588;18.456;2024-03-08T13:31:44;101541.48;;;2.79;71.39
85039;BME280;75366;54.588;18.456;2024-03-08T13:36:46;101535.64;;;2.67;71.67
85039;BME280;75366;54.588;18.456;2024-03-08T13:41:48;101526.94;;;2.52;71.91
85039;BME280;75366;54.588;18.456;2024-03-08T13:46:49;101519.64;;;2.39;72.15
85039;BME280;75366;54.588;18.456;2024-03-08T13:51:55;101514.89;;;2.30;72.71
85039;BME280;75366;54.588;18.456;2024-03-08T13:56:58;101511.38;;;2.25;73.17
85039;BME280;75366;54.588;18.456;2024-03-08T14:02:00;101507.39;;;2.13;73.19
85039;BME280;75366;54.588;18.456;2024-03-08T14:07:03;101507.73;;;2.05;73.13
85039;BME280;75366;54.588;18.456;2024-03-08T14:12:06;101510.92;;;1.94;73.29
85039;BME280;75366;54.588;18.456;2024-03-08T14:17:08;101504.73;;;1.84;73.53
85039;BME280;75366;54.588;18.456;2024-03-08T14:22:12;101500.94;;;1.79;73.73
85039;BME280;75366;54.588;18.456;2024-03-08T14:27:15;101502.09;;;1.76;74.00
85039;BME280;75366;54.588;18.456;2024-03-08T14:32:19;101495.99;;;1.72;74.09
85039;BME280;75366;54.588;18.456;2024-03-08T14:37:24;101483.17;;;1.69;74.29
85039;BME280;75366;54.588;18.456;2024-03-08T14:42:30;101482.40;;;1.64;74.41
85039;BME280;75366;54.588;18.456;2024-03-08T14:47:34;101480.68;;;1.55;74.45
85039;BME280;75366;54.588;18.456;2024-03-08T14:52:36;101476.52;;;1.44;74.59
85039;BME280;75366;54.588;18.456;2024-03-08T14:57:44;101475.48;;;1.41;74.85
85039;BME280;75366;54.588;18.456;2024-03-08T15:03:05;101472.20;;;1.38;74.90
85039;BME280;75366;54.588;18.456;2024-03-08T15:08:27;101466.30;;;1.33;75.08
85039;BME280;75366;54.588;18.456;2024-03-08T15:13:29;101465.69;;;1.21;75.07
85039;BME280;75366;54.588;18.456;2024-03-08T15:18:44;101462.27;;;1.17;75.43
85039;BME280;75366;54.588;18.456;2024-03-08T15:23:53;101459.54;;;1.12;75.42
85039;BME280;75366;54.588;18.456;2024-03-08T15:28:56;101461.34;;;1.08;75.54
85039;BME280;75366;54.588;18.456;2024-03-08T15:33:58;101454.96;;;1.00;75.71
85039;BME280;75366;54.588;18.456;2024-03-08T15:39:14;101451.93;;;0.92;75.92
85039;BME280;75366;54.588;18.456;2024-03-08T15:44:15;101445.78;;;0.88;75.86
85039;BME280;75366;54.588;18.456;2024-03-08T15:49:17;101444.39;;;0.85;75.95
85039;BME280;75366;54.588;18.456;2024-03-08T15:54:20;101441.64;;;0.75;76.17
85039;BME280;75366;54.588;18.456;2024-03-08T15:59:23;101438.68;;;0.68;76.39
85039;BME280;75366;54.588;18.456;2024-03-08T16:04:24;101433.42;;;0.57;76.52
85039;BME280;75366;54.588;18.456;2024-03-08T16:09:27;101429.55;;;0.49;76.47
85039;BME280;75366;54.588;18.456;2024-03-08T16:14:30;101424.39;;;0.44;76.67
85039;BME280;75366;54.588;18.456;2024-03-08T16:19:52;101418.49;;;0.38;76.80
85039;BME280;75366;54.588;18.456;2024-03-08T16:24:53;101418.60;;;0.29;76.96
85039;BME280;75366;54.588;18.456;2024-03-08T16:29:58;101416.42;;;0.22;76.99
85039;BME280;75366;54.588;18.456;2024-03-08T16:35:00;101418.27;;;0.12;77.33
85039;BME280;75366;54.588;18.456;2024-03-08T16:40:08;101416.77;;;0.00;77.45
85039;BME280;75366;54.588;18.456;2024-03-08T16:45:29;101416.95;;;-0.09;77.48
85039;BME280;75366;54.588;18.456;2024-03-08T16:50:31;101413.33;;;-0.12;77.60
85039;BME280;75366;54.588;18.456;2024-03-08T16:55:32;101412.85;;;-0.16;77.64
85039;BME280;75366;54.588;18.456;2024-03-08T17:00:55;101412.45;;;-0.23;77.76
85039;BME280;75366;54.588;18.456;2024-03-08T17:05:57;101417.91;;;-0.31;77.91
85039;BME280;75366;54.588;18.456;2024-03-08T17:10:59;101421.27;;;-0.35;78.19
85039;BME280;75366;54.588;18.456;2024-03-08T17:16:01;101415.81;;;-0.39;78.29
85039;BME280;75366;54.588;18.456;2024-03-08T17:21:04;101416.67;;;-0.43;78.21
85039;BME280;75366;54.588;18.456;2024-03-08T17:26:08;101413.60;;;-0.42;78.64
85039;BME280;75366;54.588;18.456;2024-03-08T17:31:10;101411.77;;;-0.37;78.74
85039;BME280;75366;54.588;18.456;2024-03-08T17:36:15;101411.71;;;-0.35;78.51
85039;BME280;75366;54.588;18.456;2024-03-08T17:41:17;101414.62;;;-0.34;78.49
85039;BME280;75366;54.588;18.456;2024-03-08T17:46:23;101411.99;;;-0.36;78.24
85039;BME280;75366;54.588;18.456;2024-03-08T17:51:26;101414.21;;;-0.45;78.26
85039;BME280;75366;54.588;18.456;2024-03-08T17:56:28;101414.61;;;-0.49;78.29
85039;BME280;75366;54.588;18.456;2024-03-08T18:01:29;101410.98;;;-0.46;78.35
85039;BME280;75366;54.588;18.456;2024-03-08T18:06:35;101406.59;;;-0.44;78.47
85039;BME280;75366;54.588;18.456;2024-03-08T18:11:42;101403.06;;;-0.46;78.76
85039;BME280;75366;54.588;18.456;2024-03-08T18:16:45;101403.26;;;-0.49;78.59
85039;BME280;75366;54.588;18.456;2024-03-08T18:21:46;101410.67;;;-0.52;78.48
85039;BME280;75366;54.588;18.456;2024-03-08T18:26:49;101406.91;;;-0.49;78.35
85039;BME280;75366;54.588;18.456;2024-03-08T18:32:11;101402.04;;;-0.46;78.44
85039;BME280;75366;54.588;18.456;2024-03-08T18:37:13;101398.90;;;-0.44;78.66
85039;BME280;75366;54.588;18.456;2024-03-08T18:42:15;101397.84;;;-0.46;78.74
85039;BME280;75366;54.588;18.456;2024-03-08T18:47:16;101397.73;;;-0.48;78.89
85039;BME280;75366;54.588;18.456;2024-03-08T18:52:19;101392.66;;;-0.54;78.65
85039;BME280;75366;54.588;18.456;2024-03-08T18:57:42;101393.95;;;-0.58;78.87
85039;BME280;75366;54.588;18.456;2024-03-08T19:02:45;101394.67;;;-0.57;78.82
85039;BME280;75366;54.588;18.456;2024-03-08T19:08:06;101387.34;;;-0.55;78.60
85039;BME280;75366;54.588;18.456;2024-03-08T19:13:28;101383.85;;;-0.57;78.83
85039;BME280;75366;54.588;18.456;2024-03-08T19:18:30;101385.80;;;-0.59;78.83
85039;BME280;75366;54.588;18.456;2024-03-08T19:23:34;101379.05;;;-0.65;78.96
85039;BME280;75366;54.588;18.456;2024-03-08T19:28:39;101378.25;;;-0.70;78.87
85039;BME280;75366;54.588;18.456;2024-03-08T19:33:42;101370.68;;;-0.71;78.96
85039;BME280;75366;54.588;18.456;2024-03-08T19:38:47;101379.98;;;-0.64;78.92
85039;BME280;75366;54.588;18.456;2024-03-08T19:43:49;101382.26;;;-0.64;78.98
85039;BME280;75366;54.588;18.456;2024-03-08T19:48:52;101381.83;;;-0.63;79.29
85039;BME280;75366;54.588;18.456;2024-03-08T19:54:00;101381.23;;;-0.65;79.15
85039;BME280;75366;54.588;18.456;2024-03-08T19:59:02;101371.40;;;-0.72;79.03
85039;BME280;75366;54.588;18.456;2024-03-08T20:04:05;101379.83;;;-0.63;79.12
85039;BME280;75366;54.588;18.456;2024-03-08T20:09:09;101378.23;;;-0.59;78.88
85039;BME280;75366;54.588;18.456;2024-03-08T20:14:13;101381.80;;;-0.58;78.96
85039;BME280;75366;54.588;18.456;2024-03-08T20:19:16;101370.96;;;-0.65;79.18
85039;BME280;75366;54.588;18.456;2024-03-08T20:24:20;101374.71;;;-0.64;79.24
85039;BME280;75366;54.588;18.456;2024-03-08T20:29:24;101369.46;;;-0.61;79.39
85039;BME280;75366;54.588;18.456;2024-03-08T20:34:29;101368.91;;;-0.60;79.19
85039;BME280;75366;54.588;18.456;2024-03-08T20:39:31;101365.75;;;-0.60;79.22
85039;BME280;75366;54.588;18.456;2024-03-08T20:44:33;101355.91;;;-0.60;79.20
85039;BME280;75366;54.588;18.456;2024-03-08T20:49:34;101349.98;;;-0.66;79.28
85039;BME280;75366;54.588;18.456;2024-03-08T20:54:42;101344.98;;;-0.70;79.45
85039;BME280;75366;54.588;18.456;2024-03-08T20:59:44;101336.69;;;-0.70;79.61
85039;BME280;75366;54.588;18.456;2024-03-08T21:04:50;101321.91;;;-0.80;79.46
85039;BME280;75366;54.588;18.456;2024-03-08T21:09:52;101330.62;;;-0.72;79.67
85039;BME280;75366;54.588;18.456;2024-03-08T21:15:00;101312.09;;;-0.84;79.94
85039;BME280;75366;54.588;18.456;2024-03-08T21:20:06;101324.67;;;-0.69;79.75
85039;BME280;75366;54.588;18.456;2024-03-08T21:25:16;101314.45;;;-0.68;80.05
85039;BME280;75366;54.588;18.456;2024-03-08T21:30:30;101318.26;;;-0.66;79.67
85039;BME280;75366;54.588;18.456;2024-03-08T21:35:33;101308.88;;;-0.72;79.74
85039;BME280;75366;54.588;18.456;2024-03-08T21:40:37;101310.63;;;-0.70;79.68
85039;BME280;75366;54.588;18.456;2024-03-08T21:45:58;101303.77;;;-0.68;79.84
85039;BME280;75366;54.588;18.456;2024-03-08T21:51:00;101303.79;;;-0.67;79.77
85039;BME280;75366;54.588;18.456;2024-03-08T21:56:02;101306.20;;;-0.70;79.64
85039;BME280;75366;54.588;18.456;2024-03-08T22:01:23;101309.02;;;-0.72;79.74
85039;BME280;75366;54.588;18.456;2024-03-08T22:06:45;101305.54;;;-0.69;79.93
85039;BME280;75366;54.588;18.456;2024-03-08T22:11:50;101303.63;;;-0.62;79.66
85039;BME280;75366;54.588;18.456;2024-03-08T22:16:53;101298.84;;;-0.55;79.80
85039;BME280;75366;54.588;18.456;2024-03-08T22:21:55;101295.83;;;-0.57;79.90
85039;BME280;75366;54.588;18.456;2024-03-08T22:26:56;101292.09;;;-0.62;79.94
85039;BME280;75366;54.588;18.456;2024-03-08T22:31:58;101288.62;;;-0.64;79.91
85039;BME280;75366;54.588;18.456;2024-03-08T22:36:59;101292.05;;;-0.65;80.33
85039;BME280;75366;54.588;18.456;2024-03-08T22:42:01;101294.92;;;-0.68;80.43
85039;BME280;75366;54.588;18.456;2024-03-08T22:47:03;101296.12;;;-0.65;80.41
85039;BME280;75366;54.588;18.456;2024-03-08T22:52:06;101292.20;;;-0.60;80.21
85039;BME280;75366;54.588;18.456;2024-03-08T22:57:08;101290.73;;;-0.57;80.14
85039;BME280;75366;54.588;18.456;2024-03-08T23:02:10;101289.02;;;-0.59;80.45
85039;BME280;75366;54.588;18.456;2024-03-08T23:07:13;101278.63;;;-0.66;80.09
85039;BME280;75366;54.588;18.456;2024-03-08T23:12:14;101274.60;;;-0.71;80.68
85039;BME280;75366;54.588;18.456;2024-03-08T23:17:16;101276.83;;;-0.65;80.77
85039;BME280;75366;54.588;18.456;2024-03-08T23:22:18;101276.59;;;-0.59;80.63
85039;BME280;75366;54.588;18.456;2024-03-08T23:27:21;101277.61;;;-0.59;80.58
85039;BME280;75366;54.588;18.456;2024-03-08T23:32:23;101273.65;;;-0.63;80.66
85039;BME280;75366;54.588;18.456;2024-03-08T23:37:24;101273.42;;;-0.66;80.40
85039;BME280;75366;54.588;18.456;2024-03-08T23:42:26;101270.17;;;-0.69;80.21
85039;BME280;75366;54.588;18.456;2024-03-08T23:47:29;101270.25;;;-0.71;80.28
85039;BME280;75366;54.588;18.456;2024-03-08T23:52:32;101274.68;;;-0.78;80.73
85039;BME280;75366;54.588;18.456;2024-03-08T23:57:36;101267.16;;;-0.80;80.86
